sensor_id;sensor_type;location;lat;lon;timestamp;pressure;altitude;pressure_sealevel;temperature;humidity
8253;BME280;61313;48.396;10.008;2023-08-06T00:01:47;95532.47;;;17.25;73.97
8253;BME280;61313;48.396;10.008;2023-08-06T00:04:12;95528.41;;;17.21;74.05
8253;BME280;61313;48.396;10.008;2023-08-06T00:06:37;95526.50;;;17.11;74.21
8253;BME280;61313;48.396;10.008;2023-08-06T00:09:03;95523.66;;;17.24;73.91
8253;BME280;61313;48.396;10.008;2023-08-06T00:11:28;95530.59;;;17.16;74.30
8253;BME280;61313;48.396;10.008;2023-08-06T00:13:53;95525.69;;;17.11;74.18
8253;BME280;61313;48.396;10.008;2023-08-06T00:16:19;95531.53;;;17.14;74.33
8253;BME280;61313;48.396;10.008;2023-08-06T00:18:44;95523.59;;;17.14;74.45
8253;BME280;61313;48.396;10.008;2023-08-06T00:21:09;95527.03;;;17.26;74.07
8253;BME280;61313;48.396;10.008;2023-08-06T00:23:37;95524.75;;;17.22;74.27
8253;BME280;61313;48.396;10.008;2023-08-06T00:26:02;95526.84;;;17.18;74.12
8253;BME280;61313;48.396;10.008;2023-08-06T00:28:28;95528.34;;;17.11;74.06
8253;BME280;61313;48.396;10.008;2023-08-06T00:30:57;95516.28;;;17.07;74.36
8253;BME280;61313;48.396;10.008;2023-08-06T00:33:23;95518.81;;;17.08;74.62
8253;BME280;61313;48.396;10.008;2023-08-06T00:35:48;95520.16;;;17.03;74.53
8253;BME280;61313;48.396;10.008;2023-08-06T00:38:14;95520.16;;;17.03;74.45
8253;BME280;61313;48.396;10.008;2023-08-06T00:40:39;95525.47;;;17.03;74.22
8253;BME280;61313;48.396;10.008;2023-08-06T00:43:05;95515.50;;;16.95;74.52
8253;BME280;61313;48.396;10.008;2023-08-06T00:45:36;95517.00;;;16.88;74.79
8253;BME280;61313;48.396;10.008;2023-08-06T00:48:03;95515.31;;;16.87;74.71
8253;BME280;61313;48.396;10.008;2023-08-06T00:50:30;95521.47;;;16.87;75.38
8253;BME280;61313;48.396;10.008;2023-08-06T00:52:56;95518.22;;;16.84;74.97
8253;BME280;61313;48.396;10.008;2023-08-06T00:55:21;95516.41;;;16.84;74.94
8253;BME280;61313;48.396;10.008;2023-08-06T00:57:47;95511.97;;;16.85;74.43
8253;BME280;61313;48.396;10.008;2023-08-06T01:00:13;95502.56;;;16.81;74.06
8253;BME280;61313;48.396;10.008;2023-08-06T01:02:38;95506.88;;;16.82;74.06
8253;BME280;61313;48.396;10.008;2023-08-06T01:05:04;95503.41;;;16.70;74.13
8253;BME280;61313;48.396;10.008;2023-08-06T01:07:46;95503.09;;;16.63;74.58
8253;BME280;61313;48.396;10.008;2023-08-06T01:13:11;95495.88;;;16.65;73.81
8253;BME280;61313;48.396;10.008;2023-08-06T01:15:49;95482.38;;;16.68;73.54
8253;BME280;61313;48.396;10.008;2023-08-06T01:18:15;95470.72;;;16.60;73.31
8253;BME280;61313;48.396;10.008;2023-08-06T01:20:41;95469.81;;;16.49;73.41
8253;BME280;61313;48.396;10.008;2023-08-06T01:23:06;95462.13;;;16.67;72.55
8253;BME280;61313;48.396;10.008;2023-08-06T01:25:43;95474.81;;;16.64;72.88
8253;BME280;61313;48.396;10.008;2023-08-06T01:28:18;95483.59;;;16.64;72.45
8253;BME280;61313;48.396;10.008;2023-08-06T01:30:49;95481.56;;;16.57;72.41
8253;BME280;61313;48.396;10.008;2023-08-06T01:33:19;95481.22;;;16.50;72.79
8253;BME280;61313;48.396;10.008;2023-08-06T01:35:47;95483.38;;;16.56;72.67
8253;BME280;61313;48.396;10.008;2023-08-06T01:38:13;95486.06;;;16.45;72.82
8253;BME280;61313;48.396;10.008;2023-08-06T01:40:39;95499.81;;;16.39;73.24
8253;BME280;61313;48.396;10.008;2023-08-06T01:43:04;95500.06;;;16.36;73.39
8253;BME280;61313;48.396;10.008;2023-08-06T01:45:30;95496.34;;;16.27;73.00
8253;BME280;61313;48.396;10.008;2023-08-06T01:47:55;95489.22;;;16.27;73.37
8253;BME280;61313;48.396;10.008;2023-08-06T01:50:20;95489.63;;;16.23;73.19
8253;BME280;61313;48.396;10.008;2023-08-06T01:52:46;95498.75;;;16.30;72.58
8253;BME280;61313;48.396;10.008;2023-08-06T01:55:11;95491.31;;;16.24;72.76
8253;BME280;61313;48.396;10.008;2023-08-06T01:57:36;95494.69;;;16.26;72.65
8253;BME280;61313;48.396;10.008;2023-08-06T02:00:02;95488.19;;;16.19;73.12
8253;BME280;61313;48.396;10.008;2023-08-06T02:02:28;95484.00;;;16.16;73.24
8253;BME280;61313;48.396;10.008;2023-08-06T02:04:54;95483.13;;;16.16;73.26
8253;BME280;61313;48.396;10.008;2023-08-06T02:07:19;95487.13;;;16.10;73.67
8253;BME280;61313;48.396;10.008;2023-08-06T02:09:44;95476.41;;;16.12;73.75
8253;BME280;61313;48.396;10.008;2023-08-06T02:12:10;95473.53;;;16.03;74.05
8253;BME280;61313;48.396;10.008;2023-08-06T02:14:35;95469.22;;;16.02;74.06
8253;BME280;61313;48.396;10.008;2023-08-06T02:17:00;95463.81;;;16.04;73.72
8253;BME280;61313;48.396;10.008;2023-08-06T02:19:26;95462.00;;;16.04;73.66
8253;BME280;61313;48.396;10.008;2023-08-06T02:21:51;95462.59;;;16.08;73.78
8253;BME280;61313;48.396;10.008;2023-08-06T02:24:17;95460.44;;;16.02;73.87
8253;BME280;61313;48.396;10.008;2023-08-06T02:26:42;95456.00;;;16.02;73.82
8253;BME280;61313;48.396;10.008;2023-08-06T02:29:07;95448.06;;;16.02;73.99
8253;BME280;61313;48.396;10.008;2023-08-06T02:31:33;95448.41;;;15.98;74.23
8253;BME280;61313;48.396;10.008;2023-08-06T02:33:58;95443.13;;;15.98;74.12
8253;BME280;61313;48.396;10.008;2023-08-06T02:36:24;95435.41;;;16.06;73.81
8253;BME280;61313;48.396;10.008;2023-08-06T02:38:49;95434.06;;;16.12;73.57
8253;BME280;61313;48.396;10.008;2023-08-06T02:41:15;95434.19;;;16.10;73.43
8253;BME280;61313;48.396;10.008;2023-08-06T02:43:40;95431.91;;;16.05;73.91
8253;BME280;61313;48.396;10.008;2023-08-06T02:46:05;95435.88;;;16.11;73.55
8253;BME280;61313;48.396;10.008;2023-08-06T02:48:31;95436.13;;;16.08;73.84
8253;BME280;61313;48.396;10.008;2023-08-06T02:50:57;95431.56;;;15.99;74.27
8253;BME280;61313;48.396;10.008;2023-08-06T02:53:23;95432.28;;;16.01;74.41
8253;BME280;61313;48.396;10.008;2023-08-06T02:55:48;95430.63;;;16.00;73.96
8253;BME280;61313;48.396;10.008;2023-08-06T02:58:14;95419.88;;;16.13;73.54
8253;BME280;61313;48.396;10.008;2023-08-06T03:00:40;95431.72;;;15.97;74.20
8253;BME280;61313;48.396;10.008;2023-08-06T03:03:06;95420.53;;;15.82;75.18
8253;BME280;61313;48.396;10.008;2023-08-06T03:05:31;95423.22;;;15.71;75.56
8253;BME280;61313;48.396;10.008;2023-08-06T03:07:56;95423.94;;;15.73;75.33
8253;BME280;61313;48.396;10.008;2023-08-06T03:10:22;95426.31;;;15.65;75.71
8253;BME280;61313;48.396;10.008;2023-08-06T03:12:47;95429.69;;;15.78;75.80
8253;BME280;61313;48.396;10.008;2023-08-06T03:15:13;95439.06;;;15.82;74.91
8253;BME280;61313;48.396;10.008;2023-08-06T03:17:38;95441.81;;;15.70;75.62
8253;BME280;61313;48.396;10.008;2023-08-06T03:20:04;95439.28;;;15.68;75.91
8253;BME280;61313;48.396;10.008;2023-08-06T03:22:29;95435.22;;;15.64;75.46
8253;BME280;61313;48.396;10.008;2023-08-06T03:24:55;95436.44;;;15.60;76.25
8253;BME280;61313;48.396;10.008;2023-08-06T03:27:20;95429.56;;;15.46;76.95
8253;BME280;61313;48.396;10.008;2023-08-06T03:29:49;95429.69;;;15.56;76.20
8253;BME280;61313;48.396;10.008;2023-08-06T03:32:14;95437.63;;;15.56;76.33
8253;BME280;61313;48.396;10.008;2023-08-06T03:34:40;95426.22;;;15.55;76.11
8253;BME280;61313;48.396;10.008;2023-08-06T03:37:05;95425.25;;;15.45;76.18
8253;BME280;61313;48.396;10.008;2023-08-06T03:39:30;95419.13;;;15.44;76.52
8253;BME280;61313;48.396;10.008;2023-08-06T03:41:56;95424.91;;;15.38;76.47
8253;BME280;61313;48.396;10.008;2023-08-06T03:44:21;95419.63;;;15.38;76.91
8253;BME280;61313;48.396;10.008;2023-08-06T03:46:46;95418.88;;;15.25;77.41
8253;BME280;61313;48.396;10.008;2023-08-06T03:49:12;95415.50;;;15.12;77.58
8253;BME280;61313;48.396;10.008;2023-08-06T03:51:37;95411.66;;;14.93;78.13
8253;BME280;61313;48.396;10.008;2023-08-06T03:54:02;95408.31;;;15.02;77.70
8253;BME280;61313;48.396;10.008;2023-08-06T03:56:28;95407.22;;;14.94;78.10
8253;BME280;61313;48.396;10.008;2023-08-06T03:58:53;95408.53;;;14.99;77.72
8253;BME280;61313;48.396;10.008;2023-08-06T04:01:18;95404.44;;;15.07;77.56
8253;BME280;61313;48.396;10.008;2023-08-06T04:03:44;95412.72;;;15.02;77.33
8253;BME280;61313;48.396;10.008;2023-08-06T04:06:09;95406.72;;;15.00;77.19
8253;BME280;61313;48.396;10.008;2023-08-06T04:08:34;95414.19;;;15.06;76.71
8253;BME280;61313;48.396;10.008;2023-08-06T04:11:00;95410.94;;;14.91;77.17
8253;BME280;61313;48.396;10.008;2023-08-06T04:13:25;95399.31;;;15.05;76.89
8253;BME280;61313;48.396;10.008;2023-08-06T04:15:51;95406.00;;;15.09;76.27
8253;BME280;61313;48.396;10.008;2023-08-06T04:18:16;95402.53;;;15.20;75.84
8253;BME280;61313;48.396;10.008;2023-08-06T04:20:45;95397.88;;;15.12;75.86
8253;BME280;61313;48.396;10.008;2023-08-06T04:23:11;95389.34;;;15.20;75.06
8253;BME280;61313;48.396;10.008;2023-08-06T04:25:37;95394.38;;;15.23;74.89
8253;BME280;61313;48.396;10.008;2023-08-06T04:28:02;95396.44;;;15.31;74.41
8253;BME280;61313;48.396;10.008;2023-08-06T04:30:27;95390.28;;;15.30;74.36
8253;BME280;61313;48.396;10.008;2023-08-06T04:32:53;95400.03;;;15.30;74.59
8253;BME280;61313;48.396;10.008;2023-08-06T04:35:18;95391.16;;;15.31;74.02
8253;BME280;61313;48.396;10.008;2023-08-06T04:37:44;95394.63;;;15.31;74.18
8253;BME280;61313;48.396;10.008;2023-08-06T04:40:09;95382.97;;;15.45;73.33
8253;BME280;61313;48.396;10.008;2023-08-06T04:42:35;95398.09;;;15.43;73.30
8253;BME280;61313;48.396;10.008;2023-08-06T04:45:04;95396.03;;;15.46;73.36
8253;BME280;61313;48.396;10.008;2023-08-06T04:47:29;95402.41;;;15.44;73.04
8253;BME280;61313;48.396;10.008;2023-08-06T04:49:54;95397.84;;;15.46;73.43
8253;BME280;61313;48.396;10.008;2023-08-06T04:52:20;95392.44;;;15.48;73.32
8253;BME280;61313;48.396;10.008;2023-08-06T04:54:45;95391.72;;;15.45;73.43
8253;BME280;61313;48.396;10.008;2023-08-06T04:57:11;95394.94;;;15.49;73.65
8253;BME280;61313;48.396;10.008;2023-08-06T04:59:36;95397.00;;;15.57;73.40
8253;BME280;61313;48.396;10.008;2023-08-06T05:02:01;95385.56;;;15.56;73.54
8253;BME280;61313;48.396;10.008;2023-08-06T05:04:27;95393.75;;;15.53;73.24
8253;BME280;61313;48.396;10.008;2023-08-06T05:06:53;95393.84;;;15.63;73.07
8253;BME280;61313;48.396;10.008;2023-08-06T05:09:18;95395.41;;;15.65;72.82
8253;BME280;61313;48.396;10.008;2023-08-06T05:11:46;95401.44;;;15.56;73.74
8253;BME280;61313;48.396;10.008;2023-08-06T05:14:11;95402.31;;;15.57;73.42
8253;BME280;61313;48.396;10.008;2023-08-06T05:16:36;95403.97;;;15.58;73.58
8253;BME280;61313;48.396;10.008;2023-08-06T05:19:02;95404.34;;;15.53;73.36
8253;BME280;61313;48.396;10.008;2023-08-06T05:21:27;95408.41;;;15.57;73.82
8253;BME280;61313;48.396;10.008;2023-08-06T05:23:52;95403.25;;;15.44;74.08
8253;BME280;61313;48.396;10.008;2023-08-06T05:26:18;95394.94;;;15.49;73.92
8253;BME280;61313;48.396;10.008;2023-08-06T05:28:44;95392.44;;;15.48;73.77
8253;BME280;61313;48.396;10.008;2023-08-06T05:31:11;95392.94;;;15.30;74.87
8253;BME280;61313;48.396;10.008;2023-08-06T05:33:36;95393.06;;;15.17;74.79
8253;BME280;61313;48.396;10.008;2023-08-06T05:36:02;95385.72;;;15.21;74.79
8253;BME280;61313;48.396;10.008;2023-08-06T05:38:27;95385.25;;;15.16;75.03
8253;BME280;61313;48.396;10.008;2023-08-06T05:40:52;95385.38;;;15.14;75.07
8253;BME280;61313;48.396;10.008;2023-08-06T05:43:18;95390.16;;;15.09;74.87
8253;BME280;61313;48.396;10.008;2023-08-06T05:45:46;95383.56;;;15.26;74.12
8253;BME280;61313;48.396;10.008;2023-08-06T05:48:12;95393.91;;;15.29;74.01
8253;BME280;61313;48.396;10.008;2023-08-06T05:50:37;95398.09;;;15.32;74.12
8253;BME280;61313;48.396;10.008;2023-08-06T05:53:03;95396.41;;;15.42;73.42
8253;BME280;61313;48.396;10.008;2023-08-06T05:55:28;95392.44;;;15.48;73.80
8253;BME280;61313;48.396;10.008;2023-08-06T05:57:54;95397.59;;;15.49;73.42
8253;BME280;61313;48.396;10.008;2023-08-06T06:00:21;95400.72;;;15.77;72.96
8253;BME280;61313;48.396;10.008;2023-08-06T06:02:46;95387.25;;;16.44;70.27
8253;BME280;61313;48.396;10.008;2023-08-06T06:05:12;95401.50;;;16.85;68.57
8253;BME280;61313;48.396;10.008;2023-08-06T06:07:37;95389.28;;;17.55;66.41
8253;BME280;61313;48.396;10.008;2023-08-06T06:10:03;95385.47;;;17.89;65.07
8253;BME280;61313;48.396;10.008;2023-08-06T06:12:28;95375.72;;;18.28;63.50
8253;BME280;61313;48.396;10.008;2023-08-06T06:14:54;95370.25;;;18.69;62.07
8253;BME280;61313;48.396;10.008;2023-08-06T06:17:19;95358.59;;;18.89;61.38
8253;BME280;61313;48.396;10.008;2023-08-06T06:19:44;95359.94;;;19.13;61.19
8253;BME280;61313;48.396;10.008;2023-08-06T06:22:10;95355.16;;;19.54;59.98
8253;BME280;61313;48.396;10.008;2023-08-06T06:24:35;95354.81;;;19.94;59.22
8253;BME280;61313;48.396;10.008;2023-08-06T06:27:01;95362.09;;;19.64;59.63
8253;BME280;61313;48.396;10.008;2023-08-06T06:29:26;95365.03;;;19.71;59.48
8253;BME280;61313;48.396;10.008;2023-08-06T06:31:51;95362.16;;;19.17;60.18
8253;BME280;61313;48.396;10.008;2023-08-06T06:34:17;95380.88;;;18.49;62.78
8253;BME280;61313;48.396;10.008;2023-08-06T06:36:42;95388.56;;;18.23;63.61
8253;BME280;61313;48.396;10.008;2023-08-06T06:39:07;95387.16;;;17.99;64.23
8253;BME280;61313;48.396;10.008;2023-08-06T06:41:33;95389.56;;;18.03;63.91
8253;BME280;61313;48.396;10.008;2023-08-06T06:43:59;95396.94;;;18.09;63.91
8253;BME280;61313;48.396;10.008;2023-08-06T06:46:24;95390.13;;;18.55;62.83
8253;BME280;61313;48.396;10.008;2023-08-06T06:48:49;95395.97;;;19.44;60.57
8253;BME280;61313;48.396;10.008;2023-08-06T06:51:15;95384.25;;;19.93;58.11
8253;BME280;61313;48.396;10.008;2023-08-06T06:53:40;95386.75;;;19.94;58.29
8253;BME280;61313;48.396;10.008;2023-08-06T06:56:06;95384.38;;;19.63;58.92
8253;BME280;61313;48.396;10.008;2023-08-06T06:58:32;95396.59;;;19.19;59.61
8253;BME280;61313;48.396;10.008;2023-08-06T07:00:57;95391.91;;;18.74;60.38
8253;BME280;61313;48.396;10.008;2023-08-06T07:03:23;95401.84;;;18.33;61.34
8253;BME280;61313;48.396;10.008;2023-08-06T07:05:49;95394.03;;;18.22;62.06
8253;BME280;61313;48.396;10.008;2023-08-06T07:08:14;95395.28;;;18.08;63.33
8253;BME280;61313;48.396;10.008;2023-08-06T07:10:41;95393.88;;;18.04;62.70
8253;BME280;61313;48.396;10.008;2023-08-06T07:13:06;95392.91;;;18.14;62.97
8253;BME280;61313;48.396;10.008;2023-08-06T07:15:32;95403.25;;;18.27;61.53
8253;BME280;61313;48.396;10.008;2023-08-06T07:17:57;95392.22;;;18.32;61.59
8253;BME280;61313;48.396;10.008;2023-08-06T07:20:23;95399.91;;;18.45;60.67
8253;BME280;61313;48.396;10.008;2023-08-06T07:22:48;95388.31;;;18.46;60.93
8253;BME280;61313;48.396;10.008;2023-08-06T07:25:15;95391.50;;;18.69;60.60
8253;BME280;61313;48.396;10.008;2023-08-06T07:27:40;95385.97;;;19.56;57.65
8253;BME280;61313;48.396;10.008;2023-08-06T07:30:06;95383.81;;;19.32;57.31
8253;BME280;61313;48.396;10.008;2023-08-06T07:32:32;95383.75;;;19.14;57.37
8253;BME280;61313;48.396;10.008;2023-08-06T07:34:57;95389.97;;;18.76;58.42
8253;BME280;61313;48.396;10.008;2023-08-06T07:37:28;95388.84;;;18.59;58.42
8253;BME280;61313;48.396;10.008;2023-08-06T07:39:54;95394.44;;;18.56;58.20
8253;BME280;61313;48.396;10.008;2023-08-06T07:42:20;95384.31;;;19.08;56.15
8253;BME280;61313;48.396;10.008;2023-08-06T07:44:55;95386.53;;;19.13;55.86
8253;BME280;61313;48.396;10.008;2023-08-06T07:47:22;95391.00;;;19.22;55.72
8253;BME280;61313;48.396;10.008;2023-08-06T07:49:47;95384.22;;;18.90;54.13
8253;BME280;61313;48.396;10.008;2023-08-06T07:52:12;95397.25;;;18.83;53.92
8253;BME280;61313;48.396;10.008;2023-08-06T07:54:38;95385.81;;;19.20;53.38
8253;BME280;61313;48.396;10.008;2023-08-06T07:57:03;95393.31;;;19.72;52.10
8253;BME280;61313;48.396;10.008;2023-08-06T07:59:29;95387.75;;;19.65;52.34
8253;BME280;61313;48.396;10.008;2023-08-06T08:01:54;95395.91;;;19.54;52.05
8253;BME280;61313;48.396;10.008;2023-08-06T08:04:20;95396.66;;;18.90;52.62
8253;BME280;61313;48.396;10.008;2023-08-06T08:06:46;95383.03;;;19.12;53.41
8253;BME280;61313;48.396;10.008;2023-08-06T08:09:11;95391.56;;;19.25;53.84
8253;BME280;61313;48.396;10.008;2023-08-06T08:11:38;95395.41;;;18.94;55.02
8253;BME280;61313;48.396;10.008;2023-08-06T08:14:04;95411.34;;;18.74;55.60
8253;BME280;61313;48.396;10.008;2023-08-06T08:16:29;95412.63;;;18.60;56.35
8253;BME280;61313;48.396;10.008;2023-08-06T08:18:55;95404.81;;;18.78;56.57
8253;BME280;61313;48.396;10.008;2023-08-06T08:21:20;95404.63;;;18.90;55.94
8253;BME280;61313;48.396;10.008;2023-08-06T08:23:45;95404.63;;;19.09;55.53
8253;BME280;61313;48.396;10.008;2023-08-06T08:26:11;95400.00;;;19.01;54.94
8253;BME280;61313;48.396;10.008;2023-08-06T08:28:36;95406.19;;;18.82;56.79
8253;BME280;61313;48.396;10.008;2023-08-06T08:31:01;95398.91;;;18.65;59.19
8253;BME280;61313;48.396;10.008;2023-08-06T08:33:27;95409.84;;;18.43;59.32
8253;BME280;61313;48.396;10.008;2023-08-06T08:35:52;95412.47;;;18.23;60.26
8253;BME280;61313;48.396;10.008;2023-08-06T08:38:17;95410.38;;;18.17;61.29
8253;BME280;61313;48.396;10.008;2023-08-06T08:40:46;95428.81;;;18.09;61.13
8253;BME280;61313;48.396;10.008;2023-08-06T08:43:14;95423.34;;;18.01;61.50
8253;BME280;61313;48.396;10.008;2023-08-06T08:45:42;95421.34;;;17.83;61.56
8253;BME280;61313;48.396;10.008;2023-08-06T08:48:09;95429.41;;;17.72;61.67
8253;BME280;61313;48.396;10.008;2023-08-06T08:50:37;95427.16;;;17.67;62.02
8253;BME280;61313;48.396;10.008;2023-08-06T08:53:03;95437.88;;;17.66;62.11
8253;BME280;61313;48.396;10.008;2023-08-06T08:55:29;95436.09;;;17.76;62.15
8253;BME280;61313;48.396;10.008;2023-08-06T08:57:55;95436.06;;;17.66;62.11
8253;BME280;61313;48.396;10.008;2023-08-06T09:00:20;95438.59;;;17.68;62.32
8253;BME280;61313;48.396;10.008;2023-08-06T09:02:46;95433.69;;;17.63;63.18
8253;BME280;61313;48.396;10.008;2023-08-06T09:05:12;95434.09;;;17.59;62.21
8253;BME280;61313;48.396;10.008;2023-08-06T09:07:42;95438.28;;;17.61;62.10
8253;BME280;61313;48.396;10.008;2023-08-06T09:10:11;95435.75;;;17.60;63.12
8253;BME280;61313;48.396;10.008;2023-08-06T09:12:39;95433.94;;;17.50;63.70
8253;BME280;61313;48.396;10.008;2023-08-06T09:15:05;95437.53;;;17.49;62.60
8253;BME280;61313;48.396;10.008;2023-08-06T09:17:30;95435.00;;;17.48;63.44
8253;BME280;61313;48.396;10.008;2023-08-06T09:19:56;95441.47;;;17.55;63.71
8253;BME280;61313;48.396;10.008;2023-08-06T09:22:21;95443.56;;;17.51;64.29
8253;BME280;61313;48.396;10.008;2023-08-06T09:24:47;95447.47;;;17.57;63.40
8253;BME280;61313;48.396;10.008;2023-08-06T09:27:14;95447.59;;;17.46;63.75
8253;BME280;61313;48.396;10.008;2023-08-06T09:29:43;95453.09;;;17.33;63.39
8253;BME280;61313;48.396;10.008;2023-08-06T09:32:11;95464.25;;;17.27;64.40
8253;BME280;61313;48.396;10.008;2023-08-06T09:34:39;95462.78;;;17.13;65.08
8253;BME280;61313;48.396;10.008;2023-08-06T09:37:04;95463.41;;;17.05;65.33
8253;BME280;61313;48.396;10.008;2023-08-06T09:39:30;95467.69;;;16.97;67.01
8253;BME280;61313;48.396;10.008;2023-08-06T09:41:58;95467.09;;;16.93;67.61
8253;BME280;61313;48.396;10.008;2023-08-06T09:44:25;95471.69;;;16.91;68.02
8253;BME280;61313;48.396;10.008;2023-08-06T09:46:53;95476.53;;;16.86;68.91
8253;BME280;61313;48.396;10.008;2023-08-06T09:49:20;95473.94;;;16.96;68.10
8253;BME280;61313;48.396;10.008;2023-08-06T09:51:50;95487.13;;;16.86;67.58
8253;BME280;61313;48.396;10.008;2023-08-06T09:54:17;95480.88;;;16.76;67.61
8253;BME280;61313;48.396;10.008;2023-08-06T09:56:46;95478.72;;;16.81;67.59
8253;BME280;61313;48.396;10.008;2023-08-06T09:59:12;95481.38;;;16.81;67.57
8253;BME280;61313;48.396;10.008;2023-08-06T10:01:37;95472.31;;;16.83;67.21
8253;BME280;61313;48.396;10.008;2023-08-06T10:04:04;95482.56;;;16.77;67.34
8253;BME280;61313;48.396;10.008;2023-08-06T10:06:33;95478.53;;;16.61;67.97
8253;BME280;61313;48.396;10.008;2023-08-06T10:08:59;95488.44;;;16.59;67.55
8253;BME280;61313;48.396;10.008;2023-08-06T10:11:25;95481.94;;;16.52;68.29
8253;BME280;61313;48.396;10.008;2023-08-06T10:13:57;95488.72;;;16.45;68.50
8253;BME280;61313;48.396;10.008;2023-08-06T10:16:24;95496.78;;;16.43;69.03
8253;BME280;61313;48.396;10.008;2023-08-06T10:18:50;95495.03;;;16.33;69.84
8253;BME280;61313;48.396;10.008;2023-08-06T10:21:17;95491.09;;;16.48;69.14
8253;BME280;61313;48.396;10.008;2023-08-06T10:23:43;95493.75;;;16.48;69.56
8253;BME280;61313;48.396;10.008;2023-08-06T10:26:08;95489.38;;;16.58;69.73
8253;BME280;61313;48.396;10.008;2023-08-06T10:28:37;95477.91;;;17.01;67.77
8253;BME280;61313;48.396;10.008;2023-08-06T10:31:03;95479.50;;;17.34;nan
8253;BME280;61313;48.396;10.008;2023-08-06T10:33:42;95477.38;;;17.59;65.97
8253;BME280;61313;48.396;10.008;2023-08-06T10:36:11;95473.38;;;17.65;65.00
8253;BME280;61313;48.396;10.008;2023-08-06T10:38:44;95477.84;;;17.74;64.57
8253;BME280;61313;48.396;10.008;2023-08-06T10:41:15;95472.91;;;17.60;64.76
8253;BME280;61313;48.396;10.008;2023-08-06T10:43:42;95473.13;;;17.47;64.96
8253;BME280;61313;48.396;10.008;2023-08-06T10:46:11;95465.22;;;17.56;65.11
8253;BME280;61313;48.396;10.008;2023-08-06T10:48:40;95471.38;;;17.67;65.11
8253;BME280;61313;48.396;10.008;2023-08-06T10:51:10;95467.34;;;17.63;65.71
8253;BME280;61313;48.396;10.008;2023-08-06T10:53:37;95468.75;;;17.67;65.82
8253;BME280;61313;48.396;10.008;2023-08-06T10:56:15;95480.75;;;17.61;67.13
8253;BME280;61313;48.396;10.008;2023-08-06T10:58:41;95485.25;;;17.40;67.22
8253;BME280;61313;48.396;10.008;2023-08-06T11:01:07;95482.50;;;17.20;67.36
8253;BME280;61313;48.396;10.008;2023-08-06T11:03:33;95486.75;;;17.11;68.10
8253;BME280;61313;48.396;10.008;2023-08-06T11:05:59;95490.88;;;17.04;68.52
8253;BME280;61313;48.396;10.008;2023-08-06T11:08:28;95489.41;;;17.11;68.12
8253;BME280;61313;48.396;10.008;2023-08-06T11:10:55;95488.63;;;17.21;67.58
8253;BME280;61313;48.396;10.008;2023-08-06T11:13:24;95485.38;;;17.17;67.60
8253;BME280;61313;48.396;10.008;2023-08-06T11:15:52;95490.13;;;17.13;68.15
8253;BME280;61313;48.396;10.008;2023-08-06T11:18:17;95492.09;;;17.00;69.00
8253;BME280;61313;48.396;10.008;2023-08-06T11:20:44;95476.34;;;16.99;69.28
8253;BME280;61313;48.396;10.008;2023-08-06T11:23:10;95488.06;;;16.96;69.43
8253;BME280;61313;48.396;10.008;2023-08-06T11:25:44;95491.00;;;16.82;69.66
8253;BME280;61313;48.396;10.008;2023-08-06T11:28:10;95493.25;;;16.86;69.47
8253;BME280;61313;48.396;10.008;2023-08-06T11:30:37;95489.31;;;16.81;69.58
8253;BME280;61313;48.396;10.008;2023-08-06T11:33:03;95492.69;;;16.83;68.74
8253;BME280;61313;48.396;10.008;2023-08-06T11:35:28;95491.84;;;16.82;69.43
8253;BME280;61313;48.396;10.008;2023-08-06T11:37:54;95489.31;;;16.81;68.83
8253;BME280;61313;48.396;10.008;2023-08-06T11:40:20;95484.22;;;16.89;67.43
8253;BME280;61313;48.396;10.008;2023-08-06T11:42:46;95482.16;;;16.92;68.42
8253;BME280;61313;48.396;10.008;2023-08-06T11:45:12;95482.50;;;16.99;68.32
8253;BME280;61313;48.396;10.008;2023-08-06T11:47:40;95475.25;;;17.01;68.78
8253;BME280;61313;48.396;10.008;2023-08-06T11:50:09;95497.56;;;16.99;68.46
8253;BME280;61313;48.396;10.008;2023-08-06T11:52:46;95492.25;;;16.99;68.23
8253;BME280;61313;48.396;10.008;2023-08-06T11:55:12;95492.50;;;16.96;68.65
8253;BME280;61313;48.396;10.008;2023-08-06T11:57:39;95490.72;;;16.96;68.75
8253;BME280;61313;48.396;10.008;2023-08-06T12:00:12;95487.97;;;17.07;68.33
8253;BME280;61313;48.396;10.008;2023-08-06T12:02:43;95487.47;;;17.13;68.24
8253;BME280;61313;48.396;10.008;2023-08-06T12:05:11;95498.84;;;17.04;68.25
8253;BME280;61313;48.396;10.008;2023-08-06T12:07:39;95497.34;;;17.11;67.73
8253;BME280;61313;48.396;10.008;2023-08-06T12:10:05;95494.44;;;17.14;68.39
8253;BME280;61313;48.396;10.008;2023-08-06T12:12:30;95507.34;;;17.29;68.41
8253;BME280;61313;48.396;10.008;2023-08-06T12:14:56;95503.81;;;17.19;67.67
8253;BME280;61313;48.396;10.008;2023-08-06T12:17:23;95499.75;;;17.14;66.92
8253;BME280;61313;48.396;10.008;2023-08-06T12:19:49;95494.13;;;17.08;67.79
8253;BME280;61313;48.396;10.008;2023-08-06T12:22:14;95498.34;;;17.10;67.20
8253;BME280;61313;48.396;10.008;2023-08-06T12:24:42;95503.69;;;17.20;67.65
8253;BME280;61313;48.396;10.008;2023-08-06T12:27:07;95505.75;;;17.17;67.88
8253;BME280;61313;48.396;10.008;2023-08-06T12:29:33;95508.84;;;17.22;68.08
8253;BME280;61313;48.396;10.008;2023-08-06T12:31:58;95519.47;;;17.22;68.08
8253;BME280;61313;48.396;10.008;2023-08-06T12:34:23;95521.88;;;17.25;68.84
8253;BME280;61313;48.396;10.008;2023-08-06T12:36:49;95520.06;;;17.25;68.71
8253;BME280;61313;48.396;10.008;2023-08-06T12:39:14;95506.19;;;17.22;69.17
8253;BME280;61313;48.396;10.008;2023-08-06T12:41:39;95522.66;;;17.16;68.66
8253;BME280;61313;48.396;10.008;2023-08-06T12:44:05;95524.06;;;16.99;70.09
8253;BME280;61313;48.396;10.008;2023-08-06T12:46:31;95531.28;;;16.97;70.02
8253;BME280;61313;48.396;10.008;2023-08-06T12:48:56;95527.97;;;16.83;71.04
8253;BME280;61313;48.396;10.008;2023-08-06T12:51:23;95540.56;;;16.91;70.39
8253;BME280;61313;48.396;10.008;2023-08-06T12:53:49;95541.13;;;16.73;70.22
8253;BME280;61313;48.396;10.008;2023-08-06T12:56:14;95539.47;;;16.93;70.10
8253;BME280;61313;48.396;10.008;2023-08-06T12:58:39;95538.66;;;16.93;68.79